Time;durP1;ratioP1;P1;durP2;ratioP2;P2;SDS_P1;SDS_P2;PMS_P1;PMS_P2;Temp;Humidity;BMP_temperature;BMP_pressure;BME280_temperature;BME280_humidity;BME280_pressure;Samples;Min_cycle;Max_cycle;Signal;HPM_P1;HPM_P2
2022/07/09 00:00:08;;;;;;;21.98;11.50;;;;;;;15.38;86.96;102688.78;5072969;28;20028;-81
2022/07/09 00:02:34;;;;;;;22.50;10.10;;;;;;;15.39;86.77;102679.69;5071594;28;20038;-81
2022/07/09 00:04:59;;;;;;;24.00;11.52;;;;;;;15.34;86.63;102679.97;5073918;28;20375;-81
2022/07/09 00:07:26;;;;;;;22.73;9.93;;;;;;;15.32;86.64;102681.91;5071983;28;20028;-81
2022/07/09 00:09:51;;;;;;;22.92;9.65;;;;;;;15.29;86.58;102684.81;5074261;28;20059;-81
2022/07/09 00:12:17;;;;;;;21.70;10.07;;;;;;;15.23;86.93;102682.50;5074311;28;20059;-81
2022/07/09 00:14:42;;;;;;;22.13;10.13;;;;;;;15.19;87.00;102683.66;5073206;28;20020;-81
2022/07/09 00:17:07;;;;;;;21.67;10.77;;;;;;;15.15;87.43;102682.09;5071022;28;20107;-81
2022/07/09 00:19:32;;;;;;;22.75;10.52;;;;;;;15.09;87.15;102683.38;5073067;28;20100;-81
2022/07/09 00:21:58;;;;;;;22.17;9.90;;;;;;;15.05;87.37;102672.84;5074535;28;20037;-81
2022/07/09 00:24:23;;;;;;;19.50;9.55;;;;;;;15.02;87.57;102676.59;5072881;28;20028;-81
2022/07/09 00:26:48;;;;;;;20.83;10.52;;;;;;;15.01;87.44;102672.16;5072334;28;20051;-81
2022/07/09 00:29:14;;;;;;;21.08;9.93;;;;;;;14.98;87.68;102670.50;5074875;28;20398;-81
2022/07/09 00:31:39;;;;;;;21.55;10.18;;;;;;;14.98;88.14;102680.50;5073729;28;20035;-81
2022/07/09 00:34:04;;;;;;;21.55;9.40;;;;;;;14.99;87.63;102677.69;5073202;28;20056;-81
2022/07/09 00:36:29;;;;;;;19.95;9.07;;;;;;;14.96;87.90;102679.69;5072873;28;20028;-81
2022/07/09 00:38:55;;;;;;;19.77;9.20;;;;;;;14.94;88.01;102671.66;5071498;28;20512;-81
2022/07/09 00:41:20;;;;;;;21.90;9.75;;;;;;;14.90;87.87;102671.97;5070022;28;20036;-81
2022/07/09 00:43:48;;;;;;;19.83;9.43;;;;;;;14.87;88.07;102669.44;5072830;28;20024;-81
2022/07/09 00:46:14;;;;;;;19.35;9.25;;;;;;;14.85;87.92;102666.84;5071181;28;20016;-81
2022/07/09 00:48:39;;;;;;;22.08;10.70;;;;;;;14.80;87.97;102668.94;5072821;28;20134;-81
2022/07/09 00:51:05;;;;;;;18.70;9.45;;;;;;;14.80;88.28;102674.38;5069974;28;20500;-81
2022/07/09 00:53:30;;;;;;;20.85;9.57;;;;;;;14.76;88.21;102670.09;5070623;28;20025;-81
2022/07/09 00:55:56;;;;;;;20.70;9.32;;;;;;;14.75;88.38;102671.09;5071035;28;20408;-81
2022/07/09 00:58:22;;;;;;;29.23;11.05;;;;;;;14.74;88.24;102669.34;5073683;28;20032;-81
2022/07/09 01:00:47;;;;;;;20.17;10.15;;;;;;;14.73;88.20;102670.28;5075793;28;20043;-81
2022/07/09 01:03:13;;;;;;;20.65;9.98;;;;;;;14.70;88.37;102667.78;5077129;28;20028;-81
2022/07/09 01:05:38;;;;;;;23.33;11.75;;;;;;;14.68;88.35;102670.59;5072763;28;20388;-81
2022/07/09 01:08:05;;;;;;;21.27;11.45;;;;;;;14.67;88.65;102667.03;5076160;28;20025;-81
2022/07/09 01:10:33;;;;;;;24.60;11.10;;;;;;;14.66;88.31;102670.69;5076281;28;20020;-81
2022/07/09 01:12:59;;;;;;;22.15;11.10;;;;;;;14.67;88.71;102667.03;5075235;28;20121;-81
2022/07/09 01:15:24;;;;;;;22.42;10.40;;;;;;;14.65;88.69;102660.81;5075384;28;20025;-81
2022/07/09 01:17:52;;;;;;;21.30;11.10;;;;;;;14.63;88.67;102657.34;5076377;28;20085;-81
2022/07/09 01:20:31;;;;;;;22.02;11.38;;;;;;;14.60;88.46;102662.06;5076457;28;20495;-81
2022/07/09 01:22:57;;;;;;;20.30;11.27;;;;;;;14.57;89.00;102660.41;5074687;28;20032;-81
2022/07/09 01:25:38;;;;;;;21.25;10.48;;;;;;;14.54;89.04;102663.31;5075321;28;20021;-81
2022/07/09 01:28:05;;;;;;;20.90;11.00;;;;;;;14.55;88.61;102656.91;5074297;28;20111;-81
2022/07/09 01:30:31;;;;;;;19.67;10.02;;;;;;;14.54;88.35;102641.66;5077135;28;20029;-81
2022/07/09 01:32:57;;;;;;;22.83;10.65;;;;;;;14.50;88.50;102646.38;5076837;28;20020;-81
2022/07/09 01:35:22;;;;;;;21.33;10.50;;;;;;;14.45;88.59;102643.09;5076824;28;20399;-81
2022/07/09 01:37:48;;;;;;;22.98;10.57;;;;;;;14.46;88.22;102638.53;5073136;28;20468;-81
2022/07/09 01:40:13;;;;;;;20.48;10.18;;;;;;;14.44;88.21;102635.06;5077288;28;20036;-81
2022/07/09 01:42:39;;;;;;;19.85;9.80;;;;;;;14.39;88.40;102632.63;5066875;28;20506;-81
2022/07/09 01:45:06;;;;;;;20.70;10.43;;;;;;;14.39;88.70;102631.75;5070147;28;20021;-81
2022/07/09 01:47:31;;;;;;;22.42;11.93;;;;;;;14.33;88.75;102636.59;5064884;28;20036;-81
2022/07/09 01:49:56;;;;;;;22.80;11.70;;;;;;;14.32;89.24;102637.53;5074665;28;20122;-81
2022/07/09 01:52:22;;;;;;;23.25;11.43;;;;;;;14.29;89.06;102632.31;5095098;28;20094;-81
2022/07/09 01:54:47;;;;;;;21.25;11.38;;;;;;;14.27;89.04;102625.25;5076681;28;20534;-81
2022/07/09 01:57:12;;;;;;;22.10;10.13;;;;;;;14.25;88.88;102630.75;5075762;28;20104;-81
2022/07/09 01:59:37;;;;;;;22.95;11.60;;;;;;;14.26;88.70;102629.81;5076614;28;20439;-81
2022/07/09 02:02:04;;;;;;;20.58;10.20;;;;;;;14.24;88.70;102623.59;5077053;28;20029;-81
2022/07/09 02:04:29;;;;;;;22.60;11.02;;;;;;;14.22;89.46;102625.53;5074426;28;20024;-81
2022/07/09 02:06:56;;;;;;;22.20;10.93;;;;;;;14.21;88.74;102623.78;5074521;28;20494;-82
2022/07/09 02:09:21;;;;;;;20.70;10.82;;;;;;;14.15;88.67;102625.03;5073392;28;20029;-82
2022/07/09 02:11:48;;;;;;;21.88;11.93;;;;;;;14.11;88.49;102626.19;5074896;28;20048;-82
2022/07/09 02:14:13;;;;;;;22.83;10.52;;;;;;;14.06;88.87;102619.31;5074459;28;20064;-82
2022/07/09 02:16:38;;;;;;;21.13;9.75;;;;;;;14.04;88.87;102615.81;5072375;28;20372;-82
2022/07/09 02:19:04;;;;;;;20.83;10.30;;;;;;;14.03;88.47;102616.81;5073511;28;20065;-82
2022/07/09 02:21:29;;;;;;;21.25;11.13;;;;;;;14.02;88.79;102615.06;5076217;28;20468;-82
2022/07/09 02:23:58;;;;;;;21.05;10.45;;;;;;;13.97;88.30;102609.94;5074353;28;20070;-82
2022/07/09 02:26:25;;;;;;;21.98;11.10;;;;;;;13.92;88.33;102610.19;5073929;28;20024;-82
2022/07/09 02:28:50;;;;;;;21.13;11.43;;;;;;;13.86;88.99;102607.84;5067563;28;20033;-82
2022/07/09 02:31:15;;;;;;;19.77;10.32;;;;;;;13.84;88.54;102611.63;5055104;28;20017;-82
2022/07/09 02:33:40;;;;;;;25.80;11.65;;;;;;;13.80;88.94;102606.38;5059725;28;20082;-82
2022/07/09 02:36:06;;;;;;;20.98;10.60;;;;;;;13.76;89.03;102607.53;5075004;28;20103;-82
2022/07/09 02:38:31;;;;;;;20.92;10.00;;;;;;;13.79;88.95;102601.06;5075227;28;20016;-82
2022/07/09 02:40:57;;;;;;;21.42;10.48;;;;;;;13.78;89.08;102604.75;5072717;28;20025;-82
2022/07/09 02:43:22;;;;;;;22.08;10.82;;;;;;;13.78;88.78;102602.91;5071765;28;20117;-82
2022/07/09 02:45:51;;;;;;;22.55;12.25;;;;;;;13.76;89.07;102612.06;5074332;28;20060;-82
2022/07/09 02:48:16;;;;;;;21.67;11.18;;;;;;;13.73;88.55;102604.13;5074133;28;20340;-82
2022/07/09 02:50:41;;;;;;;22.83;12.48;;;;;;;13.71;88.89;102598.81;5075252;28;20060;-82
2022/07/09 02:53:06;;;;;;;20.15;10.95;;;;;;;13.71;88.92;102595.25;5072590;28;20450;-82
2022/07/09 02:55:32;;;;;;;22.27;11.40;;;;;;;13.69;89.05;102595.34;5068823;28;20118;-82
2022/07/09 02:57:57;;;;;;;23.60;12.02;;;;;;;13.68;89.09;102596.31;5073875;28;20482;-82
2022/07/09 03:00:22;;;;;;;22.33;11.10;;;;;;;13.66;89.04;102590.13;5073161;28;20032;-82
2022/07/09 03:02:47;;;;;;;22.27;11.68;;;;;;;13.67;89.04;102588.28;5070609;28;20484;-82
2022/07/09 03:05:13;;;;;;;23.05;12.60;;;;;;;13.70;89.34;102593.50;5073628;28;20097;-82
2022/07/09 03:07:38;;;;;;;22.38;12.20;;;;;;;13.69;89.62;102591.75;5073198;28;20024;-82
2022/07/09 03:10:04;;;;;;;23.40;12.55;;;;;;;13.70;89.19;102588.09;5073499;28;20074;-82
2022/07/09 03:12:29;;;;;;;23.65;12.73;;;;;;;13.69;89.50;102599.84;5072581;28;20136;-82
2022/07/09 03:14:54;;;;;;;23.70;12.52;;;;;;;13.65;89.58;102588.38;5070629;28;20403;-82
2022/07/09 03:17:20;;;;;;;29.15;13.98;;;;;;;13.63;89.40;102590.28;5072659;28;20084;-82
2022/07/09 03:19:45;;;;;;;22.95;13.15;;;;;;;13.65;89.22;102588.38;5072554;28;20024;-82
2022/07/09 03:22:12;;;;;;;25.80;15.25;;;;;;;13.66;89.05;102595.53;5071643;28;20067;-82
2022/07/09 03:24:37;;;;;;;24.30;13.55;;;;;;;13.64;89.11;102587.50;5072597;28;20480;-82
2022/07/09 03:27:02;;;;;;;25.77;14.23;;;;;;;13.65;89.08;102588.38;5072982;28;20101;-82
2022/07/09 03:29:28;;;;;;;25.33;14.68;;;;;;;13.63;88.86;102591.16;5072683;28;20066;-82
2022/07/09 03:31:53;;;;;;;24.83;14.77;;;;;;;13.59;89.26;102583.34;5072591;28;20400;-82
2022/07/09 03:34:18;;;;;;;26.35;16.20;;;;;;;13.60;89.46;102585.94;5073799;28;20032;-82
2022/07/09 03:36:44;;;;;;;27.88;16.30;;;;;;;13.61;89.26;102590.38;5074006;28;20422;-82
2022/07/09 03:39:09;;;;;;;25.92;15.57;;;;;;;13.62;89.60;102589.41;5072223;28;20028;-82
2022/07/09 03:41:35;;;;;;;26.42;16.63;;;;;;;13.64;90.01;102581.22;5070075;28;20036;-82
2022/07/09 03:44:00;;;;;;;26.02;15.95;;;;;;;13.66;90.15;102587.44;5073452;28;20114;-82
2022/07/09 03:46:25;;;;;;;26.65;16.77;;;;;;;13.66;90.06;102592.84;5071037;28;20127;-82
2022/07/09 03:48:51;;;;;;;28.63;17.48;;;;;;;13.62;90.26;102600.22;5073116;28;20025;-82
2022/07/09 03:51:16;;;;;;;27.27;17.33;;;;;;;13.65;90.42;102593.78;5075362;28;20047;-82
2022/07/09 03:53:42;;;;;;;28.42;17.23;;;;;;;13.64;90.37;102592.88;5071575;28;20020;-82
2022/07/09 03:56:07;;;;;;;25.85;16.35;;;;;;;13.64;90.68;102592.03;5073915;28;20394;-82
2022/07/09 03:58:32;;;;;;;27.08;17.13;;;;;;;13.66;90.50;102590.13;5072268;28;20039;-82
2022/07/09 04:00:58;;;;;;;26.15;17.88;;;;;;;13.69;90.43;102583.66;5071356;28;20039;-82
2022/07/09 04:03:23;;;;;;;28.80;17.05;;;;;;;13.70;90.84;102585.41;5070708;28;20016;-82
2022/07/09 04:05:48;;;;;;;27.92;18.00;;;;;;;13.72;91.35;102589.75;5068819;28;20159;-82
2022/07/09 04:08:14;;;;;;;29.20;19.00;;;;;;;13.76;91.95;102585.03;5068296;28;20032;-82
2022/07/09 04:10:39;;;;;;;31.23;20.23;;;;;;;13.81;92.11;102585.66;5068856;28;20384;-82
2022/07/09 04:13:04;;;;;;;30.90;18.95;;;;;;;13.86;92.66;102583.53;5068074;28;20056;-82
2022/07/09 04:15:30;;;;;;;29.92;19.90;;;;;;;13.92;92.20;102585.84;5071886;28;20105;-82
2022/07/09 04:17:55;;;;;;;29.65;19.52;;;;;;;13.95;92.03;102590.22;5072670;28;20029;-82
2022/07/09 04:20:21;;;;;;;31.45;20.88;;;;;;;13.98;92.07;102581.91;5070420;28;20115;-82
2022/07/09 04:22:46;;;;;;;29.50;20.48;;;;;;;14.02;92.22;102583.47;5069987;28;20021;-82
2022/07/09 04:25:11;;;;;;;29.33;19.67;;;;;;;14.03;92.06;102579.81;5071512;28;20012;-82
2022/07/09 04:27:38;;;;;;;31.83;21.05;;;;;;;14.08;92.63;102566.03;5072432;28;20025;-82
2022/07/09 04:30:05;;;;;;;36.35;23.40;;;;;;;14.10;92.67;102567.69;5070373;28;20087;-82
2022/07/09 04:32:31;;;;;;;34.40;22.75;;;;;;;14.13;93.24;102572.03;5073620;28;20024;-82
2022/07/09 04:34:56;;;;;;;38.35;23.80;;;;;;;14.20;93.30;102572.50;5075875;28;20019;-82
2022/07/09 04:37:22;;;;;;;33.03;23.60;;;;;;;14.27;93.67;102569.31;5068697;28;20028;-82
2022/07/09 04:39:47;;;;;;;37.20;26.45;;;;;;;14.33;93.41;102568.09;5076333;28;21408;-82
2022/07/09 04:42:12;;;;;;;37.45;25.58;;;;;;;14.39;93.78;102573.09;5067898;28;20024;-82
2022/07/09 04:44:38;;;;;;;38.05;25.02;;;;;;;14.44;93.79;102568.28;5075806;28;20124;-82
2022/07/09 04:47:03;;;;;;;37.45;25.50;;;;;;;14.48;93.82;102563.53;5075466;28;20058;-82
2022/07/09 04:49:29;;;;;;;36.17;25.27;;;;;;;14.56;93.94;102572.06;5074177;28;20020;-82
2022/07/09 04:51:54;;;;;;;40.15;28.55;;;;;;;14.62;94.12;102570.84;5075321;28;20093;-82
2022/07/09 04:54:19;;;;;;;35.92;25.77;;;;;;;14.67;94.30;102572.31;5074298;28;20114;-82
2022/07/09 04:56:44;;;;;;;38.30;29.10;;;;;;;14.74;94.12;102577.31;5076149;28;20016;-82
2022/07/09 04:59:10;;;;;;;37.70;28.50;;;;;;;14.79;94.50;102575.19;5075006;28;20478;-82
2022/07/09 05:01:35;;;;;;;38.60;27.30;;;;;;;14.83;94.14;102561.38;5075407;28;20520;-82
2022/07/09 05:04:00;;;;;;;41.17;29.15;;;;;;;14.90;94.15;102567.25;5075939;28;20031;-82
2022/07/09 05:06:26;;;;;;;43.63;28.75;;;;;;;14.96;94.41;102572.25;5076313;28;20033;-82
2022/07/09 05:08:51;;;;;;;39.53;28.98;;;;;;;15.00;93.99;102562.97;5076970;28;20052;-82
2022/07/09 05:11:16;;;;;;;42.38;31.38;;;;;;;15.03;94.08;102557.34;5073196;28;20135;-82
2022/07/09 05:13:41;;;;;;;41.38;30.45;;;;;;;15.09;94.31;102557.94;5074681;28;20036;-82
2022/07/09 05:16:08;;;;;;;40.50;30.42;;;;;;;15.11;94.07;102569.53;5077529;28;20107;-82
2022/07/09 05:18:34;;;;;;;40.35;30.27;;;;;;;15.15;93.96;102565.66;5075911;28;20458;-82
2022/07/09 05:21:00;;;;;;;45.47;30.55;;;;;;;15.20;93.89;102566.25;5073866;28;20025;-81
2022/07/09 05:23:25;;;;;;;42.80;32.08;;;;;;;15.23;93.58;102563.31;5075883;28;20039;-82
2022/07/09 05:25:50;;;;;;;43.45;31.80;;;;;;;15.28;94.12;102569.28;5073856;28;20052;-82
2022/07/09 05:28:15;;;;;;;46.38;30.77;;;;;;;15.35;93.64;102570.63;5074455;28;20464;-82
2022/07/09 05:30:41;;;;;;;39.70;30.27;;;;;;;15.37;93.73;102566.00;5071958;28;20360;-82
2022/07/09 05:33:06;;;;;;;41.72;30.35;;;;;;;15.42;93.62;102567.50;5075290;28;20245;-82
2022/07/09 05:35:32;;;;;;;43.50;31.33;;;;;;;15.46;93.65;102563.63;5077644;28;20032;-82
2022/07/09 05:37:57;;;;;;;37.13;27.77;;;;;;;15.51;93.87;102572.31;5072927;28;20024;-81
2022/07/09 05:40:23;;;;;;;40.65;30.30;;;;;;;15.54;93.25;102570.28;5079654;28;20034;-81
2022/07/09 05:42:48;;;;;;;48.20;32.10;;;;;;;15.57;93.49;102561.06;5075306;28;20452;-81
2022/07/09 05:45:13;;;;;;;39.33;30.13;;;;;;;15.59;93.55;102569.97;5075957;28;20108;-81
2022/07/09 05:47:39;;;;;;;39.75;29.92;;;;;;;15.64;93.96;102561.53;5075550;28;20024;-81
2022/07/09 05:50:05;;;;;;;40.65;30.00;;;;;;;15.70;93.90;102563.84;5075198;28;20472;-81
2022/07/09 05:52:30;;;;;;;41.58;31.48;;;;;;;15.73;93.95;102564.47;5075707;28;20037;-81
2022/07/09 05:54:55;;;;;;;40.47;30.27;;;;;;;15.77;94.15;102553.41;5076469;28;20328;-81
2022/07/09 05:57:21;;;;;;;41.65;31.20;;;;;;;15.81;93.64;102557.69;5077557;28;20036;-81
2022/07/09 05:59:46;;;;;;;40.00;30.58;;;;;;;15.84;93.55;102560.19;5074788;28;20047;-81
2022/07/09 06:02:11;;;;;;;38.97;28.83;;;;;;;15.88;93.25;102564.44;5076728;28;20088;-81
2022/07/09 06:04:37;;;;;;;39.17;29.90;;;;;;;15.93;93.75;102565.00;5071634;28;20132;-81
2022/07/09 06:07:02;;;;;;;39.75;30.35;;;;;;;15.96;93.22;102567.50;5072823;28;20059;-81
2022/07/09 06:09:27;;;;;;;37.92;30.23;;;;;;;15.98;92.87;102561.97;5074335;28;20052;-81
2022/07/09 06:11:53;;;;;;;38.45;29.88;;;;;;;16.02;93.55;102567.06;5076332;28;20036;-81
2022/07/09 06:14:19;;;;;;;39.85;29.40;;;;;;;16.09;93.56;102564.78;5075356;28;20041;-81
2022/07/09 06:16:46;;;;;;;38.90;29.13;;;;;;;16.15;93.84;102575.25;5075421;28;20033;-81
2022/07/09 06:19:12;;;;;;;39.15;30.10;;;;;;;16.21;93.41;102573.94;5075909;28;20226;-81
2022/07/09 06:21:38;;;;;;;45.55;30.00;;;;;;;16.26;93.35;102571.75;5081626;28;20150;-81
2022/07/09 06:24:03;;;;;;;39.38;30.20;;;;;;;16.33;93.97;102564.94;5074269;28;20035;-81
2022/07/09 06:26:30;;;;;;;41.13;29.90;;;;;;;16.39;93.23;102567.19;5074445;28;20032;-81
2022/07/09 06:28:55;;;;;;;38.10;29.40;;;;;;;16.45;93.33;102562.34;5074810;28;20094;-81
2022/07/09 06:31:20;;;;;;;40.28;29.98;;;;;;;16.49;93.29;102564.72;5073412;28;20028;-81
2022/07/09 06:33:46;;;;;;;36.33;27.38;;;;;;;16.56;93.30;102570.56;5073254;28;20056;-81
2022/07/09 06:36:11;;;;;;;38.47;28.20;;;;;;;16.60;93.18;102574.78;5074372;28;20046;-81
2022/07/09 06:39:44;;;;;;;38.10;30.17;;;;;;;16.64;92.76;102573.59;5073236;28;20037;-81
2022/07/09 06:41:22;;;;;;;38.53;30.48;;;;;;;16.67;92.73;102573.38;5078252;28;20484;-81
2022/07/09 06:43:47;;;;;;;41.95;30.75;;;;;;;16.70;93.35;102570.44;5064679;28;20029;-75
2022/07/09 06:46:12;;;;;;;39.60;30.30;;;;;;;16.76;93.41;102574.56;5071506;28;20082;-75
2022/07/09 06:48:38;;;;;;;39.45;27.65;;;;;;;16.82;93.27;102573.25;5073870;28;20107;-74
2022/07/09 06:51:03;;;;;;;38.75;30.52;;;;;;;16.89;94.15;102574.56;5076980;28;20098;-74
2022/07/09 06:53:28;;;;;;;25.30;14.32;;;;;;;16.90;90.49;102579.03;5071144;28;20102;-74
2022/07/09 06:55:54;;;;;;;38.88;30.48;;;;;;;16.98;93.28;102571.19;5070028;28;20024;-74
2022/07/09 06:58:19;;;;;;;41.30;32.50;;;;;;;17.04;93.94;102570.75;5070464;28;20026;-75
2022/07/09 07:00:44;;;;;;;36.25;29.08;;;;;;;17.09;94.00;102568.56;5072461;28;20695;-75
2022/07/09 07:03:09;;;;;;;35.92;28.45;;;;;;;17.18;94.05;102566.16;5071007;28;20024;-74
2022/07/09 07:05:35;;;;;;;36.40;27.92;;;;;;;17.24;94.08;102566.53;5071425;28;20028;-74
2022/07/09 07:08:00;;;;;;;37.53;27.27;;;;;;;17.31;92.89;102577.84;5069722;28;20016;-74
2022/07/09 07:10:25;;;;;;;36.17;26.20;;;;;;;17.35;91.86;102579.34;5068234;28;20051;-74
2022/07/09 07:12:50;;;;;;;32.55;24.13;;;;;;;17.37;90.71;102577.38;5070918;28;20128;-74
2022/07/09 07:15:16;;;;;;;32.53;22.25;;;;;;;17.42;90.60;102566.16;5071018;28;20032;-74
2022/07/09 07:17:41;;;;;;;34.72;23.48;;;;;;;17.46;90.41;102573.94;5073124;28;20484;-75
2022/07/09 07:20:07;;;;;;;34.58;25.13;;;;;;;17.52;92.03;102579.94;5070537;28;20453;-75
2022/07/09 07:22:32;;;;;;;34.55;23.50;;;;;;;17.53;90.68;102568.06;5074892;28;20028;-75
2022/07/09 07:24:57;;;;;;;31.30;18.77;;;;;;;17.57;90.29;102566.84;5063239;28;20375;-75
2022/07/09 07:27:22;;;;;;;36.50;26.27;;;;;;;17.62;89.45;102570.94;5072540;28;20024;-75
2022/07/09 07:29:48;;;;;;;31.55;20.95;;;;;;;17.64;87.48;102566.28;5072085;28;20543;-75
2022/07/09 07:32:13;;;;;;;32.42;22.73;;;;;;;17.74;89.75;102565.56;5070675;28;20038;-74
2022/07/09 07:34:38;;;;;;;37.20;25.55;;;;;;;17.76;88.58;102567.19;5072030;28;20032;-76
2022/07/09 07:37:04;;;;;;;24.13;10.77;;;;;;;17.78;82.84;102569.78;5069179;28;20020;-75
2022/07/09 07:39:29;;;;;;;18.40;8.07;;;;;;;17.79;82.63;102572.38;5068110;28;20051;-75
2022/07/09 07:41:55;;;;;;;37.03;24.48;;;;;;;17.91;87.77;102580.63;5075152;28;20037;-75
2022/07/09 07:44:20;;;;;;;23.90;13.38;;;;;;;17.94;84.38;102573.09;5070612;28;20029;-74
2022/07/09 07:46:46;;;;;;;35.25;23.77;;;;;;;18.03;86.99;102576.09;5070178;28;20402;-74
2022/07/09 07:49:11;;;;;;;37.08;24.63;;;;;;;18.05;86.41;102572.25;5071391;28;20042;-75
2022/07/09 07:51:36;;;;;;;33.10;24.25;;;;;;;18.12;87.82;102573.50;5082936;28;20028;-75
2022/07/09 07:54:01;;;;;;;34.03;23.55;;;;;;;18.19;88.39;102578.47;5084920;28;20016;-75
2022/07/09 07:56:27;;;;;;;35.05;26.35;;;;;;;18.23;87.16;102585.38;5068614;28;20084;-75
2022/07/09 07:58:52;;;;;;;34.35;22.20;;;;;;;18.27;86.01;102579.63;5071127;28;20036;-75
2022/07/09 08:01:17;;;;;;;36.30;23.70;;;;;;;18.29;85.31;102579.50;5070873;28;20093;-74
2022/07/09 08:03:42;;;;;;;33.22;23.02;;;;;;;18.34;85.79;102571.81;5070690;28;20028;-74
2022/07/09 08:06:08;;;;;;;32.35;21.63;;;;;;;18.42;87.56;102568.47;5070232;28;20028;-75
2022/07/09 08:08:34;;;;;;;34.60;22.48;;;;;;;18.45;86.48;102569.13;5070091;28;20024;-75
2022/07/09 08:11:00;;;;;;;33.05;23.17;;;;;;;18.54;87.79;102572.06;5069536;28;20507;-75
2022/07/09 08:13:26;;;;;;;39.20;24.98;;;;;;;18.60;87.77;102564.28;5071084;28;20048;-75
2022/07/09 08:15:54;;;;;;;35.90;23.60;;;;;;;18.67;88.96;102567.41;5068093;28;20322;-81
2022/07/09 08:18:20;;;;;;;35.55;23.92;;;;;;;18.73;86.99;102556.00;5073085;28;20314;-81
2022/07/09 08:20:45;;;;;;;34.83;24.98;;;;;;;18.79;85.95;102554.63;5073072;28;20051;-81
2022/07/09 08:23:10;;;;;;;36.70;23.55;;;;;;;18.81;83.47;102549.91;5073447;28;20429;-81
2022/07/09 08:25:36;;;;;;;32.85;24.00;;;;;;;18.83;82.49;102551.53;5070195;28;20021;-81
2022/07/09 08:28:02;;;;;;;42.75;23.20;;;;;;;18.90;83.47;102540.16;5071896;28;20032;-81
2022/07/09 08:30:27;;;;;;;33.67;21.98;;;;;;;18.94;83.13;102536.19;5072236;28;20448;-81
2022/07/09 08:32:52;;;;;;;33.85;23.02;;;;;;;18.99;83.79;102545.72;5067118;28;20025;-81
2022/07/09 08:35:18;;;;;;;38.33;22.95;;;;;;;19.03;82.97;102544.50;5057711;28;20142;-81
2022/07/09 08:37:43;;;;;;;31.17;20.65;;;;;;;19.03;80.95;102539.03;5070243;28;20332;-82
2022/07/09 08:40:09;;;;;;;33.15;22.50;;;;;;;19.06;80.44;102537.03;5073756;28;20595;-81
2022/07/09 08:42:34;;;;;;;30.77;20.25;;;;;;;19.13;80.72;102530.09;5077818;28;20385;-81
2022/07/09 08:45:01;;;;;;;32.38;21.45;;;;;;;19.20;80.92;102534.91;5071471;28;20025;-81
2022/07/09 08:47:26;;;;;;;33.15;22.13;;;;;;;19.27;80.42;102518.03;5071251;28;20364;-79
2022/07/09 08:49:57;;;;;;;27.70;19.38;;;;;;;19.35;80.07;102529.16;5071461;28;20107;-80
2022/07/09 08:52:24;;;;;;;31.02;19.42;;;;;;;19.42;79.74;102529.53;5085540;28;20099;-80
2022/07/09 08:54:52;;;;;;;29.55;19.42;;;;;;;19.46;78.87;102525.50;5070405;28;20060;-80
2022/07/09 08:57:17;;;;;;;30.67;19.85;;;;;;;19.54;79.40;102523.88;5070920;28;20484;-80
2022/07/09 08:59:43;;;;;;;32.90;20.05;;;;;;;19.58;78.93;102529.06;5052948;28;20032;-80
2022/07/09 09:02:09;;;;;;;29.80;19.20;;;;;;;19.64;78.59;102531.28;5070291;28;20048;-80
2022/07/09 09:04:35;;;;;;;30.00;17.95;;;;;;;19.72;79.87;102524.19;5071105;28;20497;-81
2022/07/09 09:07:12;;;;;;;25.25;14.18;;;;;;;19.74;78.64;102522.16;5069132;28;20129;-80
2022/07/09 09:09:37;;;;;;;26.70;15.52;;;;;;;19.72;77.27;102515.09;5071865;28;20123;-80
2022/07/09 09:12:03;;;;;;;27.60;17.88;;;;;;;19.74;77.96;102518.59;5066791;28;20476;-80
2022/07/09 09:14:29;;;;;;;28.00;16.77;;;;;;;19.77;78.22;102529.22;5069000;28;20044;-80
2022/07/09 09:17:03;;;;;;;32.20;18.38;;;;;;;19.78;78.48;102532.81;5071649;28;20043;-80
2022/07/09 09:19:29;;;;;;;29.85;18.58;;;;;;;19.75;78.50;102531.19;5072140;28;20182;-80
2022/07/09 09:21:54;;;;;;;27.08;16.50;;;;;;;19.76;78.54;102522.03;5086641;28;20028;-80
2022/07/09 09:24:25;;;;;;;27.30;18.08;;;;;;;19.77;78.49;102518.31;5074149;28;20024;-80
2022/07/09 09:26:50;;;;;;;30.30;19.02;;;;;;;19.79;77.92;102516.34;5075384;28;20020;-80
2022/07/09 09:29:16;;;;;;;29.20;18.63;;;;;;;19.83;79.95;102517.81;5075218;28;20487;-80
2022/07/09 09:31:44;;;;;;;28.13;19.35;;;;;;;19.85;79.54;102515.81;5072390;28;20024;-80
2022/07/09 09:34:13;;;;;;;29.10;18.98;;;;;;;19.87;79.76;102519.28;5075313;28;20020;-80
2022/07/09 09:36:44;;;;;;;29.25;20.95;;;;;;;19.88;78.66;102517.41;5072876;28;20101;-80
2022/07/09 09:39:22;;;;;;;30.42;20.63;;;;;;;19.95;78.55;102512.28;5064367;28;20326;-80
2022/07/09 09:41:51;;;;;;;30.70;20.40;;;;;;;20.04;79.04;102515.06;5071995;28;20036;-80
2022/07/09 09:44:19;;;;;;;30.23;20.58;;;;;;;20.11;77.81;102511.81;5071890;28;20037;-80
2022/07/09 09:46:45;;;;;;;28.27;18.50;;;;;;;20.08;76.21;102512.94;5069990;28;20032;-80
2022/07/09 09:49:14;;;;;;;29.20;20.80;;;;;;;20.05;76.71;102511.34;5062034;28;20062;-80
2022/07/09 09:51:51;;;;;;;27.23;19.37;;;;;;;20.01;76.76;102525.41;5069770;28;20037;-80
2022/07/09 09:54:18;;;;;;;29.05;21.17;;;;;;;19.97;77.09;102515.75;5056319;28;20283;-80
2022/07/09 09:56:44;;;;;;;28.42;21.17;;;;;;;19.94;77.50;102522.31;5067051;28;20025;-80
2022/07/09 09:59:11;;;;;;;32.55;22.05;;;;;;;19.89;77.97;102519.16;5064773;28;20070;-80
2022/07/09 10:01:38;;;;;;;31.13;19.90;;;;;;;19.84;81.42;102524.13;5074437;28;20549;-79
2022/07/09 10:04:03;;;;;;;27.73;17.92;;;;;;;19.78;83.25;102521.91;5076996;28;20033;-81
2022/07/09 10:06:28;;;;;;;30.10;20.58;;;;;;;19.73;81.42;102525.03;5074936;28;20044;-80
2022/07/09 10:08:55;;;;;;;28.05;16.95;;;;;;;19.69;80.25;102521.72;5077034;28;20036;-80
2022/07/09 10:11:21;;;;;;;26.95;15.40;;;;;;;19.69;79.86;102515.38;5076801;28;20415;-80
2022/07/09 10:13:51;;;;;;;25.25;15.57;;;;;;;19.69;78.55;102526.28;5073474;28;20059;-80
2022/07/09 10:16:17;;;;;;;26.25;15.75;;;;;;;19.68;78.38;102519.13;5076404;28;20456;-80
2022/07/09 10:18:52;;;;;;;25.73;16.00;;;;;;;19.71;79.17;102524.31;5071328;28;20052;-80
2022/07/09 10:21:18;;;;;;;26.15;17.05;;;;;;;19.74;78.06;102515.84;5063048;28;20029;-80
2022/07/09 10:23:50;;;;;;;25.17;14.80;;;;;;;19.79;78.88;102515.47;5071834;28;20040;-80
2022/07/09 10:26:16;;;;;;;23.17;12.77;;;;;;;19.81;78.48;102517.09;5072151;28;20037;-80
2022/07/09 10:28:41;;;;;;;21.17;10.98;;;;;;;19.87;82.40;102515.69;5073176;28;20037;-80
2022/07/09 10:31:07;;;;;;;22.55;10.57;;;;;;;19.88;78.70;102521.03;5074007;28;20024;-80
2022/07/09 10:33:34;;;;;;;19.95;9.07;;;;;;;19.97;79.54;102513.91;5076069;28;20487;-80
2022/07/09 10:36:18;;;;;;;20.02;8.18;;;;;;;20.01;78.98;102515.34;5074915;28;20025;-80
2022/07/09 10:38:54;;;;;;;21.58;8.95;;;;;;;20.04;78.27;102519.66;5071896;28;20044;-79
2022/07/09 10:41:23;;;;;;;18.52;8.60;;;;;;;20.07;78.51;102508.47;5087098;28;20376;-79
2022/07/09 10:43:52;;;;;;;19.13;8.00;;;;;;;20.12;78.23;102508.97;5077033;28;20574;-80
2022/07/09 10:46:18;;;;;;;17.85;7.30;;;;;;;20.22;79.30;102498.06;5077570;28;20036;-80
2022/07/09 10:48:45;;;;;;;15.32;6.38;;;;;;;20.28;77.97;102494.81;5074002;28;20040;-80
2022/07/09 10:51:23;;;;;;;15.25;6.60;;;;;;;20.38;77.86;102511.22;5077854;28;20098;-80
2022/07/09 10:53:49;;;;;;;18.13;6.82;;;;;;;20.46;76.99;102497.75;5074877;28;20036;-80
2022/07/09 10:56:21;;;;;;;15.10;5.90;;;;;;;20.55;75.49;102499.66;5076189;28;20028;-80
2022/07/09 10:58:47;;;;;;;11.52;4.38;;;;;;;20.64;76.43;102500.69;5073259;28;20414;-80
2022/07/09 11:01:20;;;;;;;12.77;4.53;;;;;;;20.77;76.15;102505.97;5064358;28;20028;-80
2022/07/09 11:03:49;;;;;;;17.42;5.80;;;;;;;20.85;74.86;102507.97;5065634;28;20024;-80